Time;durP1;ratioP1;P1;durP2;ratioP2;P2;SDS_P1;SDS_P2;PMS_P1;PMS_P2;Temp;Humidity;BMP_temperature;BMP_pressure;BME280_temperature;BME280_humidity;BME280_pressure;Samples;Min_cycle;Max_cycle;Signal;HPM_P1;HPM_P2
2024/01/30 00:01:56;;;;;;;16.67;3.70;;;3.30;99.90;;;;;;5070056;28;20467;-79
2024/01/30 00:04:21;;;;;;;17.15;3.95;;;3.30;99.90;;;;;;5069510;28;20076;-79
2024/01/30 00:06:47;;;;;;;15.02;4.93;;;3.30;99.90;;;;;;5069597;28;20362;-79
2024/01/30 00:09:13;;;;;;;12.50;4.35;;;3.20;99.90;;;;;;5069549;28;20038;-79
2024/01/30 00:11:39;;;;;;;15.43;4.07;;;3.20;99.90;;;;;;5068361;28;20028;-78
2024/01/30 00:14:05;;;;;;;21.25;5.20;;;3.20;99.90;;;;;;5068415;28;20035;-78
2024/01/30 00:16:31;;;;;;;14.73;4.13;;;3.10;99.90;;;;;;5072029;28;20056;-79
2024/01/30 00:18:57;;;;;;;22.27;4.53;;;3.10;99.90;;;;;;5073491;28;20029;-79
2024/01/30 00:21:23;;;;;;;16.98;4.55;;;3.10;99.90;;;;;;5073511;28;20052;-79
2024/01/30 00:23:49;;;;;;;13.77;4.22;;;3.00;99.90;;;;;;5073825;28;20075;-78
2024/01/30 00:26:15;;;;;;;14.40;4.13;;;3.00;99.90;;;;;;5074042;28;20054;-79
2024/01/30 00:28:41;;;;;;;17.60;4.55;;;3.00;99.90;;;;;;5073803;28;20461;-79
2024/01/30 00:31:07;;;;;;;17.17;5.20;;;3.00;99.90;;;;;;5073506;28;20028;-82
2024/01/30 00:33:33;;;;;;;12.82;4.75;;;3.00;99.90;;;;;;5073087;28;20017;-79
2024/01/30 00:35:59;;;;;;;15.73;3.90;;;2.90;99.90;;;;;;5074045;28;20051;-79
2024/01/30 00:38:25;;;;;;;17.17;4.15;;;2.90;99.90;;;;;;5073003;28;20354;-79
2024/01/30 00:40:50;;;;;;;13.48;4.50;;;2.90;99.90;;;;;;5074461;28;20039;-79
2024/01/30 00:43:16;;;;;;;15.95;4.25;;;2.90;99.90;;;;;;5073903;28;20029;-80
2024/01/30 00:45:44;;;;;;;13.98;4.40;;;2.80;99.90;;;;;;5074476;28;20377;-78
2024/01/30 00:48:10;;;;;;;18.10;4.97;;;2.80;99.90;;;;;;5073954;28;20025;-81
2024/01/30 00:50:35;;;;;;;14.18;3.85;;;2.70;99.90;;;;;;5073970;28;20031;-77
2024/01/30 00:53:01;;;;;;;9.60;4.15;;;2.70;99.90;;;;;;5072342;28;20381;-77
2024/01/30 00:55:27;;;;;;;14.00;4.72;;;2.70;99.90;;;;;;5073770;28;20028;-76
2024/01/30 00:57:52;;;;;;;26.17;5.65;;;2.70;99.90;;;;;;5074016;28;20032;-77
2024/01/30 01:00:20;;;;;;;15.88;4.90;;;2.60;99.90;;;;;;5072730;28;20044;-77
2024/01/30 01:02:46;;;;;;;19.00;5.18;;;2.60;99.90;;;;;;5073694;28;20021;-77
2024/01/30 01:05:12;;;;;;;18.00;5.63;;;2.60;99.90;;;;;;5073331;28;20032;-78
2024/01/30 01:07:38;;;;;;;13.48;4.63;;;2.60;99.90;;;;;;5072056;28;20028;-76
2024/01/30 01:10:04;;;;;;;10.60;4.20;;;2.60;99.90;;;;;;5073255;28;20064;-76
2024/01/30 01:12:29;;;;;;;18.45;4.60;;;2.50;99.90;;;;;;5072905;28;20105;-77
2024/01/30 01:14:55;;;;;;;21.67;5.20;;;2.50;99.90;;;;;;5073324;28;20036;-77
2024/01/30 01:17:21;;;;;;;15.98;3.85;;;2.40;99.90;;;;;;5072631;28;20051;-76
2024/01/30 01:19:47;;;;;;;13.95;3.97;;;2.40;99.90;;;;;;5073264;28;20041;-77
2024/01/30 01:22:12;;;;;;;15.63;4.20;;;2.40;99.90;;;;;;5072879;28;20036;-79
2024/01/30 01:24:38;;;;;;;14.48;4.88;;;2.50;99.90;;;;;;5073989;28;20047;-77
2024/01/30 01:27:05;;;;;;;20.20;4.18;;;2.40;99.90;;;;;;5073623;28;20397;-78
2024/01/30 01:29:31;;;;;;;19.45;4.78;;;2.40;99.90;;;;;;5073219;28;20028;-77
2024/01/30 01:31:58;;;;;;;14.65;4.13;;;2.30;99.90;;;;;;5073254;28;20580;-77
2024/01/30 01:34:24;;;;;;;14.57;5.15;;;2.40;99.90;;;;;;5072361;28;20020;-77
2024/01/30 01:36:51;;;;;;;16.27;5.28;;;2.30;99.90;;;;;;5073352;28;20029;-77
2024/01/30 01:39:17;;;;;;;17.30;4.30;;;2.30;99.90;;;;;;5072285;28;20033;-77
2024/01/30 01:41:43;;;;;;;12.30;4.57;;;2.30;99.90;;;;;;5072522;28;20047;-77
2024/01/30 01:44:09;;;;;;;17.48;4.90;;;2.20;99.90;;;;;;5071364;28;20466;-77
2024/01/30 01:46:36;;;;;;;13.32;4.57;;;2.20;99.90;;;;;;5071820;28;20028;-76
2024/01/30 01:49:04;;;;;;;15.38;4.63;;;2.20;99.90;;;;;;5072941;28;20038;-77
2024/01/30 01:51:33;;;;;;;21.48;4.78;;;2.20;99.90;;;;;;5071816;28;20025;-77
2024/01/30 01:54:02;;;;;;;19.33;4.95;;;2.20;99.90;;;;;;5072586;28;20067;-77
2024/01/30 01:56:29;;;;;;;13.35;4.20;;;2.10;99.90;;;;;;5072474;28;20330;-77
2024/01/30 01:58:55;;;;;;;19.88;4.47;;;2.10;99.90;;;;;;5071844;28;20347;-77
2024/01/30 02:01:23;;;;;;;13.52;4.18;;;2.20;99.90;;;;;;5072081;28;20119;-77
2024/01/30 02:03:48;;;;;;;12.68;3.97;;;2.20;99.90;;;;;;5072198;28;20024;-76
2024/01/30 02:06:16;;;;;;;13.82;4.38;;;2.10;99.90;;;;;;5071799;28;20036;-79
2024/01/30 02:08:42;;;;;;;15.95;4.32;;;2.20;99.90;;;;;;5072374;28;20036;-77
2024/01/30 02:11:08;;;;;;;14.20;3.97;;;2.20;99.90;;;;;;5070559;28;20032;-75
2024/01/30 02:13:34;;;;;;;19.30;4.78;;;2.20;99.90;;;;;;5071703;28;20575;-77
2024/01/30 02:16:00;;;;;;;13.18;3.78;;;2.20;99.90;;;;;;5072340;28;20021;-77
2024/01/30 02:18:26;;;;;;;13.57;4.25;;;2.20;99.90;;;;;;5071410;28;20029;-76
2024/01/30 02:20:54;;;;;;;16.88;4.32;;;2.20;99.90;;;;;;5072104;28;20029;-76
2024/01/30 02:23:20;;;;;;;15.68;4.30;;;2.10;99.90;;;;;;5070202;28;20032;-77
2024/01/30 02:25:45;;;;;;;17.90;4.35;;;2.10;99.90;;;;;;5071976;28;20488;-76
2024/01/30 02:28:12;;;;;;;15.77;3.97;;;2.10;99.90;;;;;;5071668;28;20111;-76
2024/01/30 02:30:39;;;;;;;14.98;3.80;;;2.10;99.90;;;;;;5070824;28;20032;-76
2024/01/30 02:33:04;;;;;;;8.77;3.80;;;2.10;99.90;;;;;;5071669;28;20025;-77
2024/01/30 02:35:30;;;;;;;13.60;3.90;;;2.10;99.90;;;;;;5071399;28;20035;-77
2024/01/30 02:37:56;;;;;;;11.10;3.30;;;2.10;99.90;;;;;;5070336;28;20040;-77
2024/01/30 02:40:22;;;;;;;10.23;3.30;;;2.00;99.90;;;;;;5069996;28;20040;-77
2024/01/30 02:42:47;;;;;;;11.05;3.70;;;2.00;99.90;;;;;;5070216;28;20460;-77
2024/01/30 02:45:13;;;;;;;16.58;3.45;;;2.00;99.90;;;;;;5069999;28;20031;-77
2024/01/30 02:47:40;;;;;;;12.07;3.42;;;2.10;99.90;;;;;;5069444;28;20343;-76
2024/01/30 02:50:06;;;;;;;6.15;2.83;;;2.00;99.90;;;;;;5071487;28;20115;-76
2024/01/30 02:52:32;;;;;;;8.35;3.15;;;2.00;99.90;;;;;;5070624;28;20533;-76
2024/01/30 02:54:58;;;;;;;12.65;3.53;;;2.00;99.90;;;;;;5071533;28;20056;-76
2024/01/30 02:57:24;;;;;;;9.93;3.10;;;2.00;99.90;;;;;;5071218;28;20028;-77
2024/01/30 02:59:49;;;;;;;9.13;2.95;;;1.90;99.90;;;;;;5070859;28;20045;-76
2024/01/30 03:02:15;;;;;;;15.60;3.13;;;2.00;99.90;;;;;;5070010;28;20035;-76
2024/01/30 03:04:42;;;;;;;10.02;3.03;;;2.00;99.90;;;;;;5070583;28;20037;-76
2024/01/30 03:07:08;;;;;;;10.18;2.95;;;2.00;99.90;;;;;;5069808;28;20044;-76
2024/01/30 03:09:34;;;;;;;13.85;3.63;;;1.90;99.90;;;;;;5070782;28;20024;-77
2024/01/30 03:12:00;;;;;;;11.43;3.20;;;2.00;99.90;;;;;;5071553;28;20021;-76
2024/01/30 03:14:26;;;;;;;12.63;2.83;;;2.00;99.90;;;;;;5069218;28;20029;-77
2024/01/30 03:16:52;;;;;;;10.05;2.63;;;2.00;99.90;;;;;;5069788;28;20082;-76
2024/01/30 03:19:18;;;;;;;6.63;2.50;;;2.00;99.90;;;;;;5071053;28;20046;-78
2024/01/30 03:21:44;;;;;;;14.23;2.80;;;1.90;99.90;;;;;;5071225;28;20028;-76
2024/01/30 03:24:10;;;;;;;8.77;2.97;;;1.90;99.90;;;;;;5071012;28;20119;-76
2024/01/30 03:26:36;;;;;;;10.23;2.95;;;1.90;99.90;;;;;;5070827;28;20036;-76
2024/01/30 03:29:01;;;;;;;9.90;2.80;;;1.90;99.90;;;;;;5071345;28;20073;-76
2024/01/30 03:31:27;;;;;;;11.40;2.38;;;1.90;99.90;;;;;;5068733;28;20033;-76
2024/01/30 03:33:53;;;;;;;10.35;2.63;;;1.80;99.90;;;;;;5070665;28;20060;-76
2024/01/30 03:36:20;;;;;;;22.65;3.92;;;1.80;99.90;;;;;;5069220;28;20548;-78
2024/01/30 03:38:45;;;;;;;12.32;3.03;;;1.70;99.90;;;;;;5070663;28;20052;-76
2024/01/30 03:41:11;;;;;;;11.77;2.72;;;1.80;99.90;;;;;;5069430;28;20064;-76
2024/01/30 03:43:37;;;;;;;10.38;2.78;;;1.70;99.90;;;;;;5068714;28;20037;-76
2024/01/30 03:46:03;;;;;;;10.27;2.50;;;1.70;99.90;;;;;;5069073;28;20029;-76
2024/01/30 03:48:29;;;;;;;11.23;3.30;;;1.70;99.90;;;;;;5070267;28;20070;-76
2024/01/30 03:50:55;;;;;;;9.73;2.75;;;1.80;99.90;;;;;;5070139;28;20445;-76
2024/01/30 03:53:21;;;;;;;10.73;2.85;;;1.70;99.90;;;;;;5070600;28;20098;-77
2024/01/30 03:55:47;;;;;;;11.07;2.63;;;1.70;99.90;;;;;;5071169;28;20032;-75
2024/01/30 03:58:13;;;;;;;9.15;3.42;;;1.70;99.90;;;;;;5070865;28;20374;-78
2024/01/30 04:00:40;;;;;;;8.88;2.67;;;1.70;99.90;;;;;;5068881;28;20067;-78
2024/01/30 04:03:07;;;;;;;8.45;2.63;;;1.70;99.90;;;;;;5069548;28;20033;-79
2024/01/30 04:05:33;;;;;;;14.18;3.47;;;1.60;99.90;;;;;;5070024;28;20082;-76
2024/01/30 04:07:59;;;;;;;11.40;2.97;;;1.60;99.90;;;;;;5070447;28;20055;-77
2024/01/30 04:10:25;;;;;;;10.02;2.70;;;1.60;99.90;;;;;;5070059;28;20094;-77
2024/01/30 04:12:54;;;;;;;7.65;2.97;;;1.60;99.90;;;;;;5070818;28;20027;-77
2024/01/30 04:15:19;;;;;;;9.30;2.25;;;1.60;99.90;;;;;;5069248;28;20067;-77
2024/01/30 04:17:45;;;;;;;9.82;2.35;;;1.50;99.90;;;;;;5070232;28;20075;-77
2024/01/30 04:20:15;;;;;;;11.27;2.40;;;1.50;99.90;;;;;;5069277;28;20141;-77
2024/01/30 04:22:43;;;;;;;9.57;2.55;;;1.50;99.90;;;;;;5070244;28;20056;-77
2024/01/30 04:25:09;;;;;;;7.88;3.10;;;1.50;99.90;;;;;;5071237;28;20025;-77
2024/01/30 04:27:34;;;;;;;9.23;3.00;;;1.40;99.90;;;;;;5070251;28;20024;-76
2024/01/30 04:30:00;;;;;;;12.95;2.83;;;1.40;99.90;;;;;;5069301;28;20064;-76
2024/01/30 04:32:26;;;;;;;13.23;2.67;;;1.40;99.90;;;;;;5069930;28;20024;-77
2024/01/30 04:34:51;;;;;;;7.97;2.72;;;1.40;99.90;;;;;;5070975;28;20164;-76
2024/01/30 04:37:17;;;;;;;7.05;2.55;;;1.40;99.90;;;;;;5070399;28;20024;-77
2024/01/30 04:39:43;;;;;;;11.23;3.15;;;1.40;99.90;;;;;;5069586;28;20133;-77
2024/01/30 04:42:09;;;;;;;12.88;3.17;;;1.40;99.90;;;;;;5070335;28;20033;-76
2024/01/30 04:44:34;;;;;;;7.25;2.92;;;1.30;99.90;;;;;;5069812;28;20163;-76
2024/01/30 04:47:01;;;;;;;7.47;2.55;;;1.30;99.90;;;;;;5069012;28;20415;-76
2024/01/30 04:49:27;;;;;;;8.75;3.17;;;1.30;99.90;;;;;;5069879;28;20359;-77
2024/01/30 04:51:53;;;;;;;16.08;3.17;;;1.20;99.90;;;;;;5068815;28;20493;-77
2024/01/30 04:54:19;;;;;;;7.15;2.55;;;1.20;99.90;;;;;;5069849;28;20029;-76
2024/01/30 04:56:44;;;;;;;13.10;3.75;;;1.20;99.90;;;;;;5069129;28;20599;-77
2024/01/30 04:59:10;;;;;;;10.15;3.33;;;1.20;99.90;;;;;;5069895;28;20045;-76
2024/01/30 05:01:36;;;;;;;10.70;2.83;;;1.20;99.90;;;;;;5068055;28;20497;-77
2024/01/30 05:04:03;;;;;;;12.23;3.00;;;1.20;99.90;;;;;;5073263;28;20039;-77
2024/01/30 05:06:29;;;;;;;5.80;3.08;;;1.10;99.90;;;;;;5073083;28;20048;-77
2024/01/30 05:08:55;;;;;;;9.93;2.67;;;1.10;99.90;;;;;;5073260;28;20031;-76
2024/01/30 05:11:21;;;;;;;8.73;2.85;;;1.10;99.90;;;;;;5073311;28;20025;-76
2024/01/30 05:13:47;;;;;;;8.80;2.85;;;1.00;99.90;;;;;;5073094;28;20020;-77
2024/01/30 05:16:13;;;;;;;12.05;3.75;;;1.00;99.90;;;;;;5073797;28;20077;-76
2024/01/30 05:18:39;;;;;;;12.52;3.22;;;1.00;99.90;;;;;;5073094;28;20047;-77
2024/01/30 05:21:05;;;;;;;7.70;3.15;;;1.00;99.90;;;;;;5071799;28;20029;-77
2024/01/30 05:23:31;;;;;;;7.50;2.90;;;0.90;99.90;;;;;;5073178;28;20111;-77
2024/01/30 05:25:57;;;;;;;13.02;3.22;;;1.00;99.90;;;;;;5073702;28;20149;-77
2024/01/30 05:28:23;;;;;;;6.75;2.95;;;0.90;99.90;;;;;;5073365;28;20035;-76
2024/01/30 05:30:48;;;;;;;14.10;3.78;;;0.90;99.90;;;;;;5072699;28;20036;-77
2024/01/30 05:33:14;;;;;;;10.07;3.03;;;0.90;99.90;;;;;;5071967;28;20025;-76
2024/01/30 05:35:40;;;;;;;10.00;3.08;;;0.80;99.90;;;;;;5072746;28;20024;-76
2024/01/30 05:38:06;;;;;;;12.05;3.08;;;0.80;99.90;;;;;;5073236;28;20039;-76
2024/01/30 05:40:31;;;;;;;9.98;3.38;;;0.70;99.90;;;;;;5072622;28;20044;-76
2024/01/30 05:43:02;;;;;;;13.23;3.30;;;0.70;99.90;;;;;;5072188;28;20097;-76
2024/01/30 05:45:28;;;;;;;12.23;3.10;;;0.60;99.90;;;;;;5073041;28;20029;-77
2024/01/30 05:47:54;;;;;;;12.20;3.50;;;0.60;99.90;;;;;;5073234;28;20078;-76
2024/01/30 05:50:20;;;;;;;12.65;3.50;;;0.60;99.90;;;;;;5072981;28;20040;-76
2024/01/30 05:52:45;;;;;;;10.35;3.22;;;0.50;99.90;;;;;;5070995;28;20089;-76
2024/01/30 05:55:14;;;;;;;9.25;2.92;;;0.50;99.90;;;;;;5072769;28;20028;-76
2024/01/30 05:57:40;;;;;;;12.80;4.10;;;0.50;99.90;;;;;;5070824;28;20024;-76
2024/01/30 06:00:06;;;;;;;11.15;3.63;;;0.50;99.90;;;;;;5072926;28;20193;-76
2024/01/30 06:02:32;;;;;;;9.65;3.40;;;0.50;99.90;;;;;;5071938;28;20050;-76
2024/01/30 06:04:58;;;;;;;15.13;4.00;;;0.40;99.90;;;;;;5072742;28;20028;-76
2024/01/30 06:07:24;;;;;;;9.10;3.40;;;0.40;99.90;;;;;;5072289;28;20434;-76
2024/01/30 06:09:50;;;;;;;10.05;3.53;;;0.40;99.90;;;;;;5072004;28;20039;-76
2024/01/30 06:12:15;;;;;;;10.50;3.95;;;0.40;99.90;;;;;;5072477;28;20047;-76
2024/01/30 06:14:42;;;;;;;12.23;4.05;;;0.40;99.90;;;;;;5069979;28;20107;-76
2024/01/30 06:17:08;;;;;;;10.30;3.63;;;0.30;99.90;;;;;;5072615;28;20334;-76
2024/01/30 06:19:34;;;;;;;16.38;4.45;;;0.30;99.90;;;;;;5071791;28;20428;-76
2024/01/30 06:22:00;;;;;;;10.50;3.55;;;0.40;99.90;;;;;;5072622;28;20089;-76
2024/01/30 06:24:26;;;;;;;6.50;3.47;;;0.30;99.90;;;;;;5071353;28;20173;-75
2024/01/30 06:26:51;;;;;;;10.55;4.10;;;0.40;99.90;;;;;;5072312;28;20452;-77
2024/01/30 06:29:17;;;;;;;15.30;4.47;;;0.40;99.90;;;;;;5071266;28;20029;-76
2024/01/30 06:31:43;;;;;;;14.20;3.78;;;0.30;99.90;;;;;;5071587;28;20042;-76
2024/01/30 06:34:11;;;;;;;17.35;4.40;;;0.40;99.90;;;;;;5071863;28;20043;-76
2024/01/30 06:36:37;;;;;;;17.52;3.92;;;0.40;99.90;;;;;;5071563;28;20029;-76
2024/01/30 06:39:03;;;;;;;16.38;4.82;;;0.50;99.90;;;;;;5071848;28;20469;-76
2024/01/30 06:41:30;;;;;;;17.25;4.88;;;0.60;99.90;;;;;;5071743;28;20137;-76
2024/01/30 06:43:56;;;;;;;16.45;5.05;;;0.50;99.90;;;;;;5071790;28;20032;-76
2024/01/30 06:46:22;;;;;;;11.25;4.28;;;0.60;99.90;;;;;;5072044;28;20028;-76
2024/01/30 06:48:47;;;;;;;19.83;5.72;;;0.70;99.90;;;;;;5071184;28;20032;-76
2024/01/30 06:51:13;;;;;;;16.58;5.30;;;0.60;99.90;;;;;;5071648;28;20033;-76
2024/01/30 06:53:39;;;;;;;14.40;5.03;;;0.70;99.90;;;;;;5071074;28;20343;-77
2024/01/30 06:56:05;;;;;;;13.85;4.80;;;0.60;99.90;;;;;;5072569;28;20466;-76
2024/01/30 06:58:32;;;;;;;14.27;5.00;;;0.80;99.90;;;;;;5071436;28;20094;-77
2024/01/30 07:00:58;;;;;;;15.93;5.68;;;0.70;99.90;;;;;;5071633;28;20042;-76
2024/01/30 07:03:24;;;;;;;19.50;4.65;;;0.80;99.90;;;;;;5070305;28;20434;-76
2024/01/30 07:05:50;;;;;;;14.98;7.65;;;0.70;99.90;;;;;;5071095;28;20104;-76
2024/01/30 07:08:18;;;;;;;17.27;6.32;;;0.80;99.90;;;;;;5071271;28;20027;-76
2024/01/30 07:10:44;;;;;;;17.48;6.00;;;0.70;99.90;;;;;;5070881;28;20024;-76
2024/01/30 07:13:13;;;;;;;17.02;5.20;;;0.80;99.90;;;;;;5071546;28;20444;-76
2024/01/30 07:15:39;;;;;;;16.35;5.53;;;0.70;99.90;;;;;;5070664;28;20028;-77
2024/01/30 07:18:05;;;;;;;14.93;5.35;;;0.80;99.90;;;;;;5071274;28;20033;-76
2024/01/30 07:20:31;;;;;;;22.13;5.35;;;0.70;99.90;;;;;;5070982;28;20124;-76
2024/01/30 07:23:00;;;;;;;18.08;5.05;;;0.70;99.90;;;;;;5070441;28;20466;-75
2024/01/30 07:25:26;;;;;;;16.38;5.97;;;0.70;99.90;;;;;;5071229;28;20051;-76
2024/01/30 07:27:55;;;;;;;16.73;5.63;;;0.80;99.90;;;;;;5070050;28;20119;-76
2024/01/30 07:30:21;;;;;;;16.17;5.30;;;0.70;99.90;;;;;;5070443;28;20162;-76
2024/01/30 07:32:47;;;;;;;18.00;5.72;;;0.70;99.90;;;;;;5070585;28;20111;-76
2024/01/30 07:35:16;;;;;;;16.00;5.32;;;0.70;99.90;;;;;;5071272;28;20515;-77
2024/01/30 07:37:41;;;;;;;18.42;5.50;;;0.70;99.90;;;;;;5070543;28;20420;-77
2024/01/30 07:40:07;;;;;;;11.07;4.55;;;0.80;99.90;;;;;;5070731;28;20186;-76
2024/01/30 07:42:33;;;;;;;16.10;5.05;;;0.70;99.90;;;;;;5070510;28;20060;-76
2024/01/30 07:45:00;;;;;;;12.80;4.45;;;0.70;99.90;;;;;;5070168;28;20099;-76
2024/01/30 07:47:26;;;;;;;44.53;16.75;;;0.70;99.90;;;;;;5069966;28;20035;-76
2024/01/30 07:49:52;;;;;;;43.75;16.10;;;0.60;99.90;;;;;;5069882;28;20032;-76
2024/01/30 07:52:18;;;;;;;26.55;10.48;;;0.60;99.90;;;;;;5069289;28;20033;-76
2024/01/30 07:54:50;;;;;;;23.52;7.78;;;0.70;99.90;;;;;;5069898;28;20478;-76
2024/01/30 07:57:16;;;;;;;;;;;0.60;99.90;;;;;;5071170;28;20441;-76
2024/01/30 07:59:46;;;;;;;17.05;5.90;;;0.70;99.90;;;;;;5069617;28;20029;-76
2024/01/30 08:02:14;;;;;;;17.77;6.25;;;0.60;99.90;;;;;;5070629;28;20039;-76
2024/01/30 08:04:40;;;;;;;16.83;6.20;;;0.70;99.90;;;;;;5069858;28;20439;-76
2024/01/30 08:07:06;;;;;;;17.17;5.93;;;0.60;99.90;;;;;;5069994;28;20104;-76
2024/01/30 08:09:32;;;;;;;17.67;5.75;;;0.60;99.90;;;;;;5070548;28;20099;-76
2024/01/30 08:11:57;;;;;;;17.48;6.78;;;0.60;99.90;;;;;;5069557;28;20095;-76
2024/01/30 08:14:23;;;;;;;12.98;5.22;;;0.60;99.90;;;;;;5068662;28;20412;-76
2024/01/30 08:16:49;;;;;;;13.80;5.10;;;0.60;99.90;;;;;;5069446;28;20029;-76
2024/01/30 08:19:15;;;;;;;20.38;6.20;;;0.60;99.90;;;;;;5070010;28;20437;-76
2024/01/30 08:21:41;;;;;;;15.02;6.07;;;0.70;99.90;;;;;;5070109;28;20120;-77
2024/01/30 08:24:07;;;;;;;31.30;10.15;;;0.70;99.90;;;;;;5069729;28;20194;-77
2024/01/30 08:26:33;;;;;;;58.15;17.45;;;0.70;99.90;;;;;;5070561;28;20029;-76
2024/01/30 08:28:59;;;;;;;63.97;19.73;;;0.80;99.90;;;;;;5069224;28;20560;-77
2024/01/30 08:31:25;;;;;;;58.47;18.92;;;0.90;99.90;;;;;;5070282;28;20021;-76
2024/01/30 08:33:51;;;;;;;51.75;15.88;;;0.80;99.90;;;;;;5069686;28;20579;-77
2024/01/30 08:36:17;;;;;;;34.25;11.50;;;0.90;99.90;;;;;;5070573;28;20458;-76
2024/01/30 08:38:43;;;;;;;28.15;9.07;;;0.90;99.90;;;;;;5073594;28;20454;-77
2024/01/30 08:41:09;;;;;;;29.58;10.80;;;1.10;99.90;;;;;;5073587;28;20029;-77
2024/01/30 08:43:34;;;;;;;37.60;16.55;;;1.10;99.90;;;;;;5072752;28;20029;-78
2024/01/30 08:46:00;;;;;;;32.85;15.23;;;1.20;99.90;;;;;;5073121;28;20105;-76
2024/01/30 08:48:26;;;;;;;39.47;15.85;;;1.30;99.90;;;;;;5073610;28;20024;-77
2024/01/30 08:50:52;;;;;;;40.33;15.05;;;1.40;99.90;;;;;;5072892;28;20082;-77
2024/01/30 08:53:18;;;;;;;35.50;13.77;;;1.40;99.90;;;;;;5073669;28;20035;-78
2024/01/30 08:55:44;;;;;;;34.20;12.30;;;1.50;99.90;;;;;;5073317;28;20032;-77
2024/01/30 08:58:10;;;;;;;26.20;9.38;;;1.60;99.90;;;;;;5073430;28;20423;-77
2024/01/30 09:00:36;;;;;;;21.77;8.88;;;1.60;99.90;;;;;;5072484;28;20040;-77
2024/01/30 09:03:02;;;;;;;23.17;9.85;;;1.80;99.90;;;;;;5074137;28;20036;-77
2024/01/30 09:05:28;;;;;;;23.98;8.88;;;1.80;99.90;;;;;;5075493;28;20032;-77
2024/01/30 09:07:54;;;;;;;28.35;9.15;;;1.90;99.90;;;;;;5073056;28;20024;-77
2024/01/30 09:10:20;;;;;;;25.83;8.95;;;2.00;99.90;;;;;;5073946;28;20048;-78
2024/01/30 09:12:46;;;;;;;17.60;6.85;;;2.10;99.90;;;;;;5072662;28;20442;-78
2024/01/30 09:15:12;;;;;;;15.68;6.47;;;2.00;99.90;;;;;;5073686;28;20315;-78
2024/01/30 09:17:38;;;;;;;16.00;6.45;;;2.10;99.90;;;;;;5073564;28;20055;-78
2024/01/30 09:20:05;;;;;;;19.88;6.72;;;2.30;99.90;;;;;;5072854;28;20525;-77
2024/01/30 09:22:31;;;;;;;20.38;6.13;;;2.40;99.90;;;;;;5076035;28;20182;-76
2024/01/30 09:24:57;;;;;;;14.45;5.93;;;2.40;99.90;;;;;;5072593;28;20032;-77
2024/01/30 09:27:23;;;;;;;18.75;4.88;;;2.50;99.90;;;;;;5073901;28;20105;-76
2024/01/30 09:29:49;;;;;;;13.48;5.82;;;2.60;99.90;;;;;;5072396;28;20438;-77
2024/01/30 09:32:15;;;;;;;14.88;4.82;;;2.70;99.90;;;;;;5073103;28;20389;-76
2024/01/30 09:34:41;;;;;;;16.27;5.20;;;2.70;99.90;;;;;;5072914;28;20028;-77
2024/01/30 09:37:07;;;;;;;15.93;4.93;;;2.80;99.90;;;;;;5072734;28;20025;-77
2024/01/30 09:39:33;;;;;;;13.05;5.07;;;2.90;99.90;;;;;;5072686;28;20033;-77
2024/01/30 09:42:06;;;;;;;19.50;5.85;;;2.90;99.90;;;;;;5072710;28;20029;-77
2024/01/30 09:44:36;;;;;;;17.33;4.78;;;2.90;99.90;;;;;;5071655;28;20036;-78
2024/01/30 09:47:05;;;;;;;16.15;4.75;;;3.00;99.90;;;;;;5072614;28;20029;-77
2024/01/30 09:49:37;;;;;;;17.10;4.95;;;3.10;99.90;;;;;;5070583;28;20029;-77
2024/01/30 09:52:05;;;;;;;15.20;4.65;;;3.10;99.90;;;;;;5072318;28;20033;-77
2024/01/30 09:54:31;;;;;;;13.52;4.30;;;3.20;99.90;;;;;;5073011;28;20032;-77
2024/01/30 09:56:57;;;;;;;11.07;4.05;;;3.30;99.90;;;;;;5072106;28;20427;-77
2024/01/30 09:59:23;;;;;;;12.40;3.20;;;3.30;99.90;;;;;;5073150;28;20403;-77
2024/01/30 10:01:50;;;;;;;13.45;4.13;;;3.40;99.90;;;;;;5070756;28;20075;-78
2024/01/30 10:04:16;;;;;;;13.32;4.30;;;3.40;99.90;;;;;;5073175;28;20029;-78
2024/01/30 10:06:42;;;;;;;8.90;3.58;;;3.50;99.90;;;;;;5072696;28;20035;-77
2024/01/30 10:09:09;;;;;;;11.30;3.55;;;3.50;99.90;;;;;;5072111;28;20067;-78
2024/01/30 10:11:36;;;;;;;9.00;3.40;;;3.50;99.90;;;;;;5072591;28;20142;-77
2024/01/30 10:14:02;;;;;;;17.35;4.78;;;3.60;99.90;;;;;;5070893;28;20028;-78
2024/01/30 10:16:28;;;;;;;14.13;3.88;;;3.60;99.90;;;;;;5072620;28;20136;-77
2024/01/30 10:18:54;;;;;;;10.13;3.30;;;3.70;99.90;;;;;;5072055;28;20024;-77
2024/01/30 10:21:21;;;;;;;9.32;3.50;;;3.70;99.90;;;;;;5071171;28;20035;-77
2024/01/30 10:23:46;;;;;;;8.15;3.28;;;3.80;99.90;;;;;;5072552;28;20035;-79
2024/01/30 10:26:12;;;;;;;11.25;4.03;;;3.90;99.90;;;;;;5074382;28;20417;-78
2024/01/30 10:28:38;;;;;;;11.88;3.45;;;3.90;99.90;;;;;;5073287;28;20104;-78
2024/01/30 10:31:04;;;;;;;11.57;3.85;;;4.00;99.90;;;;;;5070551;28;20024;-78
2024/01/30 10:33:30;;;;;;;14.45;3.88;;;4.10;99.90;;;;;;5071046;28;20028;-78
2024/01/30 10:36:03;;;;;;;12.90;3.33;;;4.20;99.90;;;;;;5071261;28;20443;-78
2024/01/30 10:38:30;;;;;;;8.68;3.60;;;4.30;99.90;;;;;;5072056;28;20025;-78
2024/01/30 10:41:00;;;;;;;10.02;3.10;;;4.30;99.90;;;;;;5071639;28;20458;-78
2024/01/30 10:43:35;;;;;;;11.15;3.08;;;4.40;99.90;;;;;;5072339;28;20062;-78
2024/01/30 10:46:23;;;;;;;8.65;2.90;;;4.50;99.90;;;;;;5071840;28;20021;-77
2024/01/30 10:49:01;;;;;;;13.20;4.30;;;4.60;99.90;;;;;;5071774;28;20083;-79
2024/01/30 10:51:27;;;;;;;8.85;3.00;;;4.60;99.90;;;;;;5072652;28;20111;-78
2024/01/30 10:53:55;;;;;;;11.82;3.55;;;4.60;99.90;;;;;;5071666;28;20024;-78
2024/01/30 10:56:24;;;;;;;8.68;3.17;;;4.70;99.90;;;;;;5072211;28;20029;-79
2024/01/30 10:58:55;;;;;;;14.38;3.95;;;4.80;99.90;;;;;;5071578;28;20052;-80
2024/01/30 11:01:22;;;;;;;12.93;3.97;;;4.90;99.90;;;;;;5071165;28;20043;-79
2024/01/30 11:03:52;;;;;;;12.40;3.05;;;5.00;99.90;;;;;;5072130;28;20122;-80
2024/01/30 11:06:18;;;;;;;11.13;2.97;;;5.10;99.90;;;;;;5071857;28;20028;-79
2024/01/30 11:08:45;;;;;;;10.52;3.60;;;5.20;99.90;;;;;;5071565;28;20070;-79
2024/01/30 11:11:11;;;;;;;7.25;2.60;;;5.30;99.90;;;;;;5071895;28;20025;-79
2024/01/30 11:13:37;;;;;;;10.13;2.40;;;5.30;99.90;;;;;;5071879;28;20032;-79
2024/01/30 11:16:04;;;;;;;10.63;2.75;;;5.30;99.90;;;;;;5071420;28;20046;-79
2024/01/30 11:18:31;;;;;;;6.60;2.22;;;5.30;99.90;;;;;;5072018;28;20035;-78
2024/01/30 11:21:00;;;;;;;8.70;2.47;;;5.30;99.90;;;;;;5071215;28;20028;-79
2024/01/30 11:23:27;;;;;;;10.85;3.13;;;5.30;99.90;;;;;;5071856;28;20030;-79
2024/01/30 11:25:54;;;;;;;11.27;2.60;;;5.30;99.90;;;;;;5069916;28;20025;-79
2024/01/30 11:28:21;;;;;;;14.18;2.85;;;5.30;99.90;;;;;;5070205;28;20054;-77
2024/01/30 11:30:50;;;;;;;8.82;2.58;;;5.40;99.90;;;;;;5072211;28;20035;-78
2024/01/30 11:33:29;;;;;;;12.23;3.13;;;5.40;99.90;;;;;;5071096;28;20124;-79
2024/01/30 11:35:58;;;;;;;10.05;2.78;;;5.40;99.90;;;;;;5071218;28;20028;-78
2024/01/30 11:38:26;;;;;;;7.65;2.63;;;5.50;99.90;;;;;;5071741;28;20020;-78
2024/01/30 11:40:52;;;;;;;7.93;2.35;;;5.50;99.90;;;;;;5070029;28;20035;-77
2024/01/30 11:43:19;;;;;;;7.22;2.30;;;5.50;99.90;;;;;;5070302;28;20039;-77
2024/01/30 11:45:45;;;;;;;9.07;2.50;;;5.60;99.90;;;;;;5071925;28;20036;-78
2024/01/30 11:48:14;;;;;;;9.43;2.10;;;5.60;99.90;;;;;;5069648;28;20566;-78
2024/01/30 11:50:40;;;;;;;7.35;2.20;;;5.70;99.90;;;;;;5071509;28;20086;-77
2024/01/30 11:53:06;;;;;;;9.35;1.77;;;5.70;99.90;;;;;;5070429;28;20025;-77
2024/01/30 11:55:34;;;;;;;5.63;2.17;;;5.70;99.90;;;;;;5071125;28;20035;-78
2024/01/30 11:57:59;;;;;;;10.45;2.45;;;5.70;99.90;;;;;;5070311;28;20044;-78
2024/01/30 12:00:25;;;;;;;5.80;1.70;;;5.70;99.90;;;;;;5071201;28;20025;-77
2024/01/30 12:02:55;;;;;;;6.43;2.40;;;5.70;99.90;;;;;;5069794;28;20025;-81
2024/01/30 12:05:22;;;;;;;8.18;2.85;;;5.70;99.90;;;;;;5070006;28;20425;-78
2024/01/30 12:07:48;;;;;;;5.82;2.25;;;5.70;99.90;;;;;;5070896;28;20039;-77
2024/01/30 12:10:14;;;;;;;9.00;2.58;;;5.70;99.90;;;;;;5070942;28;20036;-77
2024/01/30 12:12:44;;;;;;;6.35;2.28;;;5.70;99.90;;;;;;5070728;28;20107;-76
2024/01/30 12:15:10;;;;;;;7.60;2.17;;;5.70;99.90;;;;;;5069783;28;20082;-78
2024/01/30 12:17:36;;;;;;;9.48;2.97;;;5.60;99.90;;;;;;5070641;28;20099;-78
2024/01/30 12:20:10;;;;;;;6.80;1.75;;;5.60;99.90;;;;;;5068882;28;20119;-77
2024/01/30 12:22:47;;;;;;;8.90;2.55;;;5.70;99.90;;;;;;5070957;28;20103;-78
2024/01/30 12:25:18;;;;;;;6.78;2.05;;;5.70;99.90;;;;;;5070819;28;20059;-77
2024/01/30 12:27:46;;;;;;;5.35;2.28;;;5.70;99.90;;;;;;5068868;28;20523;-78
2024/01/30 12:30:13;;;;;;;6.93;2.25;;;5.70;99.90;;;;;;5069829;28;20033;-77
2024/01/30 12:32:43;;;;;;;5.38;2.10;;;5.70;99.90;;;;;;5070220;28;20031;-77
2024/01/30 12:35:17;;;;;;;8.32;2.92;;;5.80;99.90;;;;;;5069570;28;20043;-77
2024/01/30 12:37:47;;;;;;;6.97;3.05;;;5.90;99.90;;;;;;5070247;28;20104;-79
2024/01/30 12:40:14;;;;;;;10.05;3.30;;;6.00;99.90;;;;;;5069593;28;20029;-78
2024/01/30 12:42:42;;;;;;;4.05;2.10;;;6.00;99.90;;;;;;5070214;28;20029;-78
2024/01/30 12:45:09;;;;;;;7.90;2.30;;;6.00;99.90;;;;;;5070108;28;20109;-79